Time;durP1;ratioP1;P1;durP2;ratioP2;P2;SDS_P1;SDS_P2;PMS_P1;PMS_P2;Temp;Humidity;BMP_temperature;BMP_pressure;BME280_temperature;BME280_humidity;BME280_pressure;Samples;Min_cycle;Max_cycle;Signal;HPM_P1;HPM_P2
2024/01/24 00:02:05;;;;;;;3.30;1.30;;;12.70;99.90;;;;;;6123539;23;20010;-93
2024/01/24 00:04:31;;;;;;;6.05;1.30;;;12.70;99.90;;;;;;6096804;23;20108;-93
2024/01/24 00:06:57;;;;;;;3.08;1.20;;;12.70;99.90;;;;;;6121079;23;20093;-93
2024/01/24 00:09:23;;;;;;;3.35;1.13;;;12.80;99.90;;;;;;6121049;23;20014;-93
2024/01/24 00:11:48;;;;;;;6.40;2.30;;;12.70;99.90;;;;;;6122922;23;20010;-91
2024/01/24 00:14:14;;;;;;;3.55;1.20;;;12.80;99.90;;;;;;6120816;23;20010;-93
2024/01/24 00:16:40;;;;;;;1.65;0.63;;;12.80;99.90;;;;;;6122961;23;20399;-92
2024/01/24 00:19:06;;;;;;;1.33;0.85;;;12.80;99.90;;;;;;6096865;23;20014;-93
2024/01/24 00:21:31;;;;;;;3.45;1.27;;;12.80;99.90;;;;;;6121576;23;20072;-93
2024/01/24 00:23:57;;;;;;;3.08;1.05;;;12.80;99.90;;;;;;6120717;23;20024;-92
2024/01/24 00:26:23;;;;;;;2.75;1.02;;;12.90;99.90;;;;;;6120989;23;20448;-93
2024/01/24 00:28:48;;;;;;;3.05;0.90;;;12.90;99.90;;;;;;6096464;23;20062;-92
2024/01/24 00:31:14;;;;;;;2.75;1.00;;;12.90;99.90;;;;;;6121525;23;20013;-92
2024/01/24 00:33:40;;;;;;;3.17;1.02;;;13.00;99.90;;;;;;6096664;23;20380;-92
2024/01/24 00:36:05;;;;;;;4.05;0.88;;;12.90;99.90;;;;;;6120630;23;20014;-92
2024/01/24 00:38:31;;;;;;;0.90;0.60;;;13.00;99.90;;;;;;6122541;23;20014;-93
2024/01/24 00:40:56;;;;;;;1.45;0.73;;;13.00;99.90;;;;;;6121069;23;20018;-92
2024/01/24 00:43:23;;;;;;;3.00;0.85;;;13.00;99.90;;;;;;6122782;23;20021;-93
2024/01/24 00:45:48;;;;;;;6.53;1.88;;;13.00;99.90;;;;;;6096674;23;20021;-92
2024/01/24 00:48:14;;;;;;;1.23;0.52;;;13.10;99.90;;;;;;6121096;23;20006;-92
2024/01/24 00:50:40;;;;;;;2.20;0.80;;;13.10;99.90;;;;;;6121379;23;20569;-92
2024/01/24 00:53:06;;;;;;;1.30;0.55;;;13.10;99.90;;;;;;6120627;23;20094;-92
2024/01/24 00:55:32;;;;;;;1.52;0.77;;;13.10;99.90;;;;;;6121825;23;20027;-93
2024/01/24 00:57:58;;;;;;;3.83;1.00;;;13.20;99.90;;;;;;6121174;23;20052;-92
2024/01/24 01:00:24;;;;;;;5.55;1.30;;;13.20;99.90;;;;;;6096020;23;20050;-92
2024/01/24 01:02:50;;;;;;;2.17;0.75;;;13.30;99.90;;;;;;6120545;23;20552;-91
2024/01/24 01:05:15;;;;;;;0.88;0.50;;;13.30;99.90;;;;;;6120499;23;20092;-93
2024/01/24 01:07:41;;;;;;;4.93;0.82;;;13.30;99.90;;;;;;6121216;23;20088;-92
2024/01/24 01:10:09;;;;;;;2.85;0.73;;;13.20;99.90;;;;;;6095913;23;20056;-92
2024/01/24 01:12:34;;;;;;;1.75;0.80;;;13.20;99.90;;;;;;6096099;23;20013;-92
2024/01/24 01:15:00;;;;;;;0.65;0.50;;;13.10;99.90;;;;;;6120192;23;20018;-91
2024/01/24 01:17:26;;;;;;;2.60;0.63;;;13.00;99.90;;;;;;6120857;23;20010;-92
2024/01/24 01:19:52;;;;;;;1.08;0.60;;;12.90;99.90;;;;;;6121428;23;20017;-93
2024/01/24 01:22:18;;;;;;;0.82;0.40;;;12.80;99.90;;;;;;6120254;23;20009;-92
2024/01/24 01:24:44;;;;;;;1.83;0.55;;;12.70;99.90;;;;;;6120045;23;20022;-92
2024/01/24 01:27:09;;;;;;;2.13;0.80;;;12.70;99.90;;;;;;6096508;23;20479;-92
2024/01/24 01:29:35;;;;;;;0.80;0.45;;;12.70;99.90;;;;;;6120961;23;20010;-93
2024/01/24 01:32:00;;;;;;;1.02;0.63;;;12.70;99.90;;;;;;6120401;23;20014;-92
2024/01/24 01:34:26;;;;;;;2.38;0.80;;;12.80;99.90;;;;;;6122373;23;20018;-93
2024/01/24 01:36:52;;;;;;;0.98;0.63;;;12.80;99.90;;;;;;6120791;23;20014;-92
2024/01/24 01:39:18;;;;;;;0.85;0.63;;;12.90;99.90;;;;;;6120670;23;20010;-91
2024/01/24 01:41:48;;;;;;;1.70;0.60;;;12.90;99.90;;;;;;6096887;23;20018;-92
2024/01/24 01:44:15;;;;;;;5.22;1.17;;;12.90;99.90;;;;;;6121023;23;20036;-93
2024/01/24 01:46:41;;;;;;;1.02;0.50;;;13.00;99.90;;;;;;6122347;23;20086;-93
2024/01/24 01:49:07;;;;;;;1.75;0.30;;;13.00;99.90;;;;;;6120809;23;20046;-92
2024/01/24 01:51:33;;;;;;;1.00;0.60;;;13.00;99.90;;;;;;6120402;23;20009;-93
2024/01/24 01:54:00;;;;;;;1.58;0.45;;;13.10;99.90;;;;;;6122472;23;20501;-92
2024/01/24 01:56:26;;;;;;;1.27;0.35;;;13.10;99.90;;;;;;6120672;23;20515;-92
2024/01/24 01:58:52;;;;;;;1.13;0.50;;;13.10;99.90;;;;;;6122242;23;20113;-92
2024/01/24 02:01:19;;;;;;;0.93;0.57;;;13.10;99.90;;;;;;6122608;23;20014;-92
2024/01/24 02:03:48;;;;;;;0.52;0.35;;;13.20;99.90;;;;;;6095743;23;20467;-91
2024/01/24 02:06:13;;;;;;;0.30;0.30;;;13.10;99.90;;;;;;6096073;23;20605;-92
2024/01/24 02:08:39;;;;;;;0.25;0.20;;;13.10;99.90;;;;;;6120428;23;20021;-91
2024/01/24 02:11:06;;;;;;;3.35;0.80;;;13.00;99.90;;;;;;6122675;23;20017;-92
2024/01/24 02:13:32;;;;;;;0.95;0.50;;;13.00;99.90;;;;;;6121919;23;20018;-92
2024/01/24 02:16:04;;;;;;;3.60;0.57;;;13.00;99.90;;;;;;6119864;23;20443;-91
2024/01/24 02:18:30;;;;;;;0.68;0.30;;;12.90;99.90;;;;;;6120994;23;20033;-91
2024/01/24 02:20:56;;;;;;;1.45;0.45;;;12.90;99.90;;;;;;6123524;23;20045;-90
2024/01/24 02:23:25;;;;;;;0.98;0.20;;;12.90;99.90;;;;;;6123531;23;20044;-90
2024/01/24 02:25:52;;;;;;;1.20;0.38;;;12.90;99.90;;;;;;6124446;23;20024;-90
2024/01/24 02:28:19;;;;;;;1.35;0.60;;;12.90;99.90;;;;;;6099256;23;20013;-90
2024/01/24 02:30:45;;;;;;;1.13;0.45;;;12.90;99.90;;;;;;6123425;23;20465;-90
2024/01/24 02:33:12;;;;;;;2.15;0.50;;;12.80;99.90;;;;;;6122275;23;20054;-90
2024/01/24 02:35:37;;;;;;;3.20;0.55;;;12.80;99.90;;;;;;6123176;23;20014;-90
2024/01/24 02:38:03;;;;;;;4.53;1.13;;;12.80;99.90;;;;;;6122585;23;20017;-90
2024/01/24 02:40:29;;;;;;;1.08;0.45;;;12.80;99.90;;;;;;6124192;23;20017;-90
2024/01/24 02:42:55;;;;;;;1.50;0.40;;;12.70;99.90;;;;;;6123456;23;20018;-90
2024/01/24 02:45:20;;;;;;;0.80;0.40;;;12.70;99.90;;;;;;6121725;23;20010;-90
2024/01/24 02:47:46;;;;;;;0.45;0.45;;;12.60;99.90;;;;;;6124065;23;20014;-90
2024/01/24 02:50:12;;;;;;;1.15;0.40;;;12.60;99.90;;;;;;6122094;23;20560;-90
2024/01/24 02:52:38;;;;;;;1.27;0.38;;;12.50;99.90;;;;;;6123469;23;20010;-90
2024/01/24 02:55:06;;;;;;;0.30;0.20;;;12.50;99.90;;;;;;6097182;23;20014;-90
2024/01/24 02:57:31;;;;;;;0.65;0.30;;;12.50;99.90;;;;;;6124101;23;20036;-91
2024/01/24 02:59:57;;;;;;;2.67;0.55;;;12.40;99.90;;;;;;6097567;23;20017;-90
2024/01/24 03:02:22;;;;;;;0.80;0.10;;;12.30;99.90;;;;;;6098074;23;20089;-89
2024/01/24 03:04:48;;;;;;;0.75;0.20;;;12.30;99.90;;;;;;6121735;23;20549;-89
2024/01/24 03:07:14;;;;;;;3.30;0.85;;;12.30;99.90;;;;;;6123417;23;20021;-89
2024/01/24 03:09:39;;;;;;;6.63;0.90;;;12.30;99.90;;;;;;6123934;23;20343;-89
2024/01/24 03:12:05;;;;;;;3.53;1.30;;;12.40;99.90;;;;;;6122069;23;20010;-90
2024/01/24 03:14:30;;;;;;;3.72;0.90;;;12.40;99.90;;;;;;6097090;23;20359;-90
2024/01/24 03:16:56;;;;;;;4.47;0.65;;;12.40;99.90;;;;;;6146346;23;20021;-90
2024/01/24 03:19:22;;;;;;;6.03;1.08;;;12.40;99.90;;;;;;6121440;23;20053;-90
2024/01/24 03:21:47;;;;;;;5.82;1.15;;;12.40;99.90;;;;;;6121961;23;20025;-89
2024/01/24 03:24:13;;;;;;;3.85;0.93;;;12.40;99.90;;;;;;6121582;23;20014;-89
2024/01/24 03:26:39;;;;;;;5.05;1.30;;;12.30;99.90;;;;;;6123520;23;20006;-89
2024/01/24 03:29:04;;;;;;;8.25;1.80;;;12.30;99.90;;;;;;6121513;23;20017;-90
2024/01/24 03:31:30;;;;;;;2.47;0.57;;;12.30;99.90;;;;;;6123170;23;20010;-90
2024/01/24 03:33:56;;;;;;;6.35;1.25;;;12.30;99.90;;;;;;6123185;23;20373;-89
2024/01/24 03:36:22;;;;;;;3.10;0.88;;;12.20;99.90;;;;;;6122949;23;20014;-89
2024/01/24 03:38:48;;;;;;;3.60;0.80;;;12.30;99.90;;;;;;6121236;23;20069;-89
2024/01/24 03:41:14;;;;;;;4.13;0.82;;;12.30;99.90;;;;;;6123440;23;20456;-90
2024/01/24 03:43:40;;;;;;;4.75;0.88;;;12.20;99.90;;;;;;6123244;23;20021;-90
2024/01/24 03:46:06;;;;;;;4.30;0.52;;;12.30;99.90;;;;;;6121028;23;20021;-89
2024/01/24 03:48:32;;;;;;;6.35;1.25;;;12.20;99.90;;;;;;6123384;23;20020;-89
2024/01/24 03:50:58;;;;;;;7.63;2.25;;;12.20;99.90;;;;;;6123245;23;20346;-89
2024/01/24 03:53:23;;;;;;;2.83;0.75;;;12.30;99.90;;;;;;6122710;23;20021;-89
2024/01/24 03:55:50;;;;;;;6.28;0.93;;;12.20;99.90;;;;;;6122327;23;20006;-89
2024/01/24 03:58:15;;;;;;;3.85;0.60;;;12.10;99.90;;;;;;6123375;23;20461;-90
2024/01/24 04:00:41;;;;;;;6.70;1.02;;;12.10;99.90;;;;;;6121297;23;20662;-89
2024/01/24 04:03:07;;;;;;;4.97;0.98;;;12.20;99.90;;;;;;6123060;23;20018;-89
2024/01/24 04:05:33;;;;;;;9.23;1.30;;;12.10;99.90;;;;;;6097100;23;20045;-89
2024/01/24 04:07:59;;;;;;;6.47;2.28;;;12.20;99.90;;;;;;6123384;23;20009;-90
2024/01/24 04:10:24;;;;;;;6.45;1.63;;;12.10;99.90;;;;;;6123090;23;20096;-89
2024/01/24 04:12:50;;;;;;;8.25;2.22;;;12.10;99.90;;;;;;6121712;23;20017;-90
2024/01/24 04:15:16;;;;;;;7.47;1.35;;;12.10;99.90;;;;;;6096462;23;20045;-89
2024/01/24 04:17:42;;;;;;;6.72;1.55;;;12.10;99.90;;;;;;6123081;23;20051;-90
2024/01/24 04:20:08;;;;;;;11.55;2.97;;;12.00;99.90;;;;;;6096949;23;20085;-89
2024/01/24 04:22:35;;;;;;;7.75;1.70;;;12.00;99.90;;;;;;6097354;23;20014;-89
2024/01/24 04:25:01;;;;;;;6.15;1.15;;;11.90;99.90;;;;;;6122827;23;20017;-88
2024/01/24 04:27:27;;;;;;;7.13;1.52;;;11.90;99.90;;;;;;6123055;23;20006;-89
2024/01/24 04:29:53;;;;;;;5.18;1.60;;;12.00;99.90;;;;;;6121220;23;20097;-90
2024/01/24 04:32:19;;;;;;;12.15;2.08;;;12.00;99.90;;;;;;6123342;23;20093;-90
2024/01/24 04:34:45;;;;;;;21.08;5.32;;;12.10;99.90;;;;;;6122100;23;20068;-89
2024/01/24 04:37:11;;;;;;;10.57;2.15;;;12.20;99.90;;;;;;6122424;23;20518;-89
2024/01/24 04:39:37;;;;;;;7.25;1.13;;;12.20;99.90;;;;;;6123204;23;20010;-89
2024/01/24 04:42:03;;;;;;;18.25;5.35;;;12.20;99.90;;;;;;6096645;23;20006;-89
2024/01/24 04:44:30;;;;;;;6.80;1.58;;;12.20;99.90;;;;;;6120384;23;20477;-89
2024/01/24 04:46:56;;;;;;;5.65;1.17;;;12.20;99.90;;;;;;6122930;23;20018;-89
2024/01/24 04:49:21;;;;;;;8.95;1.83;;;12.10;99.90;;;;;;6121731;23;20010;-89
2024/01/24 04:51:48;;;;;;;12.55;2.17;;;12.00;99.90;;;;;;6097501;23;20444;-90
2024/01/24 04:54:15;;;;;;;14.18;2.65;;;12.00;99.90;;;;;;6122082;23;20096;-89
2024/01/24 04:56:47;;;;;;;13.15;2.00;;;12.00;99.90;;;;;;6123285;23;20016;-89
2024/01/24 04:59:13;;;;;;;19.38;5.65;;;12.00;99.90;;;;;;6096886;23;20018;-89
2024/01/24 05:01:38;;;;;;;7.82;1.70;;;12.00;99.90;;;;;;6145468;23;20017;-89
2024/01/24 05:04:04;;;;;;;8.63;2.30;;;12.00;99.90;;;;;;6122882;23;20549;-89
2024/01/24 05:06:30;;;;;;;9.75;2.35;;;12.10;99.90;;;;;;6120802;23;20014;-89
2024/01/24 05:08:55;;;;;;;12.30;2.92;;;12.00;99.90;;;;;;6122935;23;20010;-89
2024/01/24 05:11:21;;;;;;;12.70;2.33;;;12.10;99.90;;;;;;6096671;23;20347;-89
2024/01/24 05:13:48;;;;;;;15.02;2.65;;;12.10;99.90;;;;;;6120684;23;20013;-89
2024/01/24 05:16:13;;;;;;;10.88;2.53;;;12.10;99.90;;;;;;6122169;23;20010;-89
2024/01/24 05:18:39;;;;;;;14.38;2.53;;;12.00;99.90;;;;;;6121039;23;20109;-89
2024/01/24 05:21:05;;;;;;;15.00;2.63;;;12.00;99.90;;;;;;6122455;23;20010;-89
2024/01/24 05:23:32;;;;;;;17.38;3.63;;;12.00;99.90;;;;;;6122204;23;20348;-89
2024/01/24 05:25:58;;;;;;;13.38;2.97;;;11.90;99.90;;;;;;6121837;23;20017;-89
2024/01/24 05:28:23;;;;;;;13.45;3.17;;;11.90;99.90;;;;;;6096349;23;20018;-89
2024/01/24 05:30:49;;;;;;;9.45;2.33;;;11.90;99.90;;;;;;6145277;23;20088;-89
2024/01/24 05:33:15;;;;;;;13.68;2.83;;;11.90;99.90;;;;;;6096808;23;20020;-89
2024/01/24 05:35:42;;;;;;;16.50;2.92;;;11.80;99.90;;;;;;6145200;23;20018;-89
2024/01/24 05:38:07;;;;;;;15.18;3.08;;;11.70;99.90;;;;;;6120871;23;20093;-88
2024/01/24 05:40:33;;;;;;;7.97;1.70;;;11.70;99.90;;;;;;6120646;23;20050;-89
2024/01/24 05:42:59;;;;;;;12.57;3.90;;;11.70;99.90;;;;;;6120611;23;20014;-88
2024/01/24 05:45:26;;;;;;;13.98;2.30;;;11.70;99.90;;;;;;6122499;23;20561;-89
2024/01/24 05:47:52;;;;;;;13.00;2.22;;;11.60;99.90;;;;;;6096300;23;20014;-89
2024/01/24 05:50:18;;;;;;;11.88;2.10;;;11.60;99.90;;;;;;6120591;23;20006;-89
2024/01/24 05:52:44;;;;;;;13.73;2.35;;;11.50;99.90;;;;;;6122379;23;20010;-89
2024/01/24 05:55:13;;;;;;;8.57;1.85;;;11.40;99.90;;;;;;6095574;23;20014;-88
2024/01/24 05:57:39;;;;;;;26.42;3.38;;;11.40;99.90;;;;;;6096264;23;20018;-89
2024/01/24 06:00:13;;;;;;;11.90;1.75;;;11.30;99.90;;;;;;6122452;23;20105;-89
2024/01/24 06:02:39;;;;;;;17.17;3.50;;;11.30;99.90;;;;;;6120936;23;20018;-89
2024/01/24 06:05:05;;;;;;;22.90;6.90;;;11.20;99.90;;;;;;6121965;23;20020;-89
2024/01/24 06:07:31;;;;;;;16.35;3.25;;;11.30;99.90;;;;;;6096360;23;20022;-89
2024/01/24 06:09:57;;;;;;;13.40;2.90;;;11.30;99.90;;;;;;6120311;23;20017;-88
2024/01/24 06:12:23;;;;;;;16.63;2.25;;;11.30;99.90;;;;;;6096026;23;20406;-88
2024/01/24 06:14:49;;;;;;;22.75;4.05;;;11.20;99.90;;;;;;6095807;23;20022;-88
2024/01/24 06:17:15;;;;;;;19.60;3.28;;;11.20;99.90;;;;;;6122225;23;20098;-89
2024/01/24 06:19:43;;;;;;;15.18;3.15;;;11.20;99.90;;;;;;6122186;23;20021;-89
2024/01/24 06:22:09;;;;;;;14.88;3.67;;;11.10;99.90;;;;;;6121775;23;20447;-89
2024/01/24 06:24:35;;;;;;;13.20;2.80;;;11.10;99.90;;;;;;6144847;23;20077;-89
2024/01/24 06:27:01;;;;;;;14.18;3.72;;;11.10;99.90;;;;;;6120430;23;20021;-90
2024/01/24 06:29:27;;;;;;;13.52;3.08;;;11.10;99.90;;;;;;6095682;23;20010;-90
2024/01/24 06:31:53;;;;;;;16.45;3.90;;;11.10;99.90;;;;;;6096315;23;20086;-90
2024/01/24 06:34:19;;;;;;;12.65;3.17;;;11.10;99.90;;;;;;6120828;23;20049;-89
2024/01/24 06:36:44;;;;;;;22.88;3.97;;;11.10;99.90;;;;;;6120922;23;20022;-89
2024/01/24 06:39:10;;;;;;;14.65;3.58;;;11.10;99.90;;;;;;6120634;23;20516;-89
2024/01/24 06:41:36;;;;;;;13.75;3.20;;;11.10;99.90;;;;;;6096655;23;20017;-88
2024/01/24 06:44:05;;;;;;;13.93;2.75;;;11.10;99.90;;;;;;6120372;23;20018;-89
2024/01/24 06:46:31;;;;;;;14.50;3.15;;;11.10;99.90;;;;;;6121848;23;20446;-89
2024/01/24 06:48:57;;;;;;;13.98;3.33;;;11.10;99.90;;;;;;6121817;23;20014;-89
2024/01/24 06:51:23;;;;;;;9.52;2.55;;;11.00;99.90;;;;;;6121717;23;20018;-89
2024/01/24 06:53:48;;;;;;;14.65;3.22;;;11.00;99.90;;;;;;6119863;23;20018;-89
2024/01/24 06:56:14;;;;;;;10.65;2.88;;;11.00;99.90;;;;;;6119743;23;20089;-89
2024/01/24 06:58:42;;;;;;;13.38;2.75;;;11.00;99.90;;;;;;6121920;23;20099;-88
2024/01/24 07:01:08;;;;;;;16.45;3.45;;;11.00;99.90;;;;;;6120845;23;20463;-89
2024/01/24 07:03:34;;;;;;;8.10;2.10;;;11.00;99.90;;;;;;6121507;23;20021;-89
2024/01/24 07:06:00;;;;;;;11.10;2.53;;;11.10;99.90;;;;;;6096172;23;20017;-89
2024/01/24 07:08:25;;;;;;;12.63;2.88;;;11.00;99.90;;;;;;6121736;23;20014;-89
2024/01/24 07:10:51;;;;;;;14.63;3.35;;;11.00;99.90;;;;;;6121888;23;20010;-90
2024/01/24 07:13:16;;;;;;;13.65;2.90;;;11.10;99.90;;;;;;6123930;23;20085;-89
2024/01/24 07:15:42;;;;;;;10.93;2.25;;;11.10;99.90;;;;;;6123788;23;20029;-90
2024/01/24 07:18:09;;;;;;;12.38;2.92;;;11.10;99.90;;;;;;6124032;23;20017;-90
2024/01/24 07:20:35;;;;;;;14.75;3.97;;;11.10;99.90;;;;;;6100302;23;20017;-89
2024/01/24 07:23:01;;;;;;;11.65;3.22;;;11.10;99.90;;;;;;6122652;23;20015;-89
2024/01/24 07:25:27;;;;;;;9.82;1.80;;;11.10;99.90;;;;;;6097444;23;20010;-89
2024/01/24 07:27:53;;;;;;;20.48;3.25;;;11.10;99.90;;;;;;6121845;23;20745;-87
2024/01/24 07:30:19;;;;;;;11.35;2.92;;;11.10;99.90;;;;;;6097227;23;20037;-89
2024/01/24 07:32:45;;;;;;;16.95;3.90;;;11.20;99.90;;;;;;6097376;23;20456;-88
2024/01/24 07:35:11;;;;;;;15.70;3.10;;;11.10;99.90;;;;;;6096566;23;20037;-89
2024/01/24 07:37:37;;;;;;;12.38;3.38;;;11.10;99.90;;;;;;6121955;23;20014;-89
2024/01/24 07:40:03;;;;;;;9.60;2.75;;;11.10;99.90;;;;;;6096802;23;20017;-89
2024/01/24 07:42:29;;;;;;;13.95;3.25;;;11.10;99.90;;;;;;6098060;23;20089;-89
2024/01/24 07:44:55;;;;;;;9.65;2.38;;;11.20;99.90;;;;;;6122926;23;20066;-89
2024/01/24 07:47:21;;;;;;;11.60;2.97;;;11.10;99.90;;;;;;6121975;23;20448;-89
2024/01/24 07:49:46;;;;;;;7.28;2.42;;;11.10;99.90;;;;;;6097256;23;20013;-88
2024/01/24 07:52:12;;;;;;;14.27;3.60;;;11.10;99.90;;;;;;6097748;23;20010;-88
2024/01/24 07:54:38;;;;;;;12.02;2.63;;;11.10;99.90;;;;;;6097218;23;20351;-89
2024/01/24 07:57:03;;;;;;;15.73;3.17;;;11.10;99.90;;;;;;6097519;23;20109;-89
2024/01/24 07:59:30;;;;;;;13.85;3.13;;;11.10;99.90;;;;;;6097012;23;20085;-89
2024/01/24 08:01:56;;;;;;;13.48;2.72;;;11.10;99.90;;;;;;6091478;23;20098;-89
2024/01/24 08:04:21;;;;;;;9.75;2.25;;;11.10;99.90;;;;;;6093701;23;20041;-89
2024/01/24 08:06:47;;;;;;;12.77;3.25;;;11.10;99.90;;;;;;6119724;23;20681;-89
2024/01/24 08:09:13;;;;;;;14.40;3.15;;;11.10;99.90;;;;;;6094142;23;20006;-89
2024/01/24 08:11:39;;;;;;;14.27;2.38;;;11.00;99.90;;;;;;6118495;23;20515;-89
2024/01/24 08:14:05;;;;;;;11.82;2.78;;;11.00;99.90;;;;;;6094378;23;20017;-89
2024/01/24 08:16:31;;;;;;;9.90;2.78;;;11.00;99.90;;;;;;6094512;23;20071;-89
2024/01/24 08:18:58;;;;;;;18.92;3.33;;;11.00;99.90;;;;;;6118149;23;20219;-89
2024/01/24 08:21:24;;;;;;;12.98;3.45;;;10.90;99.90;;;;;;6119177;23;20025;-88
2024/01/24 08:23:50;;;;;;;17.98;3.40;;;10.90;99.90;;;;;;6095260;23;20084;-89
2024/01/24 08:26:16;;;;;;;16.23;3.38;;;10.90;99.90;;;;;;6119519;23;20024;-89
2024/01/24 08:28:45;;;;;;;10.52;2.55;;;10.90;99.90;;;;;;6120407;23;20014;-89
2024/01/24 08:31:14;;;;;;;13.80;3.22;;;10.90;99.90;;;;;;6095748;23;20068;-90
2024/01/24 08:33:39;;;;;;;17.35;3.47;;;10.90;99.90;;;;;;6094355;23;20471;-89
2024/01/24 08:36:05;;;;;;;17.63;3.00;;;10.90;99.90;;;;;;6095725;23;20020;-90
2024/01/24 08:38:31;;;;;;;12.68;3.08;;;10.90;99.90;;;;;;6093791;23;20046;-89
2024/01/24 08:40:57;;;;;;;13.63;3.17;;;10.90;99.90;;;;;;6095995;23;20076;-89
2024/01/24 08:43:22;;;;;;;11.38;2.67;;;10.80;99.90;;;;;;6121855;23;20669;-90
2024/01/24 08:45:50;;;;;;;17.02;2.97;;;10.80;99.90;;;;;;6118328;23;20472;-89
2024/01/24 08:48:17;;;;;;;14.98;3.75;;;10.80;99.90;;;;;;6118619;23;20013;-89
2024/01/24 08:50:43;;;;;;;22.27;3.13;;;10.80;99.90;;;;;;6093329;23;20483;-89
2024/01/24 08:53:09;;;;;;;13.07;3.25;;;10.80;99.90;;;;;;6120629;23;20021;-89
2024/01/24 08:55:34;;;;;;;16.90;3.42;;;10.80;99.90;;;;;;6116340;23;20014;-89
2024/01/24 08:58:00;;;;;;;22.60;3.42;;;10.80;99.90;;;;;;6093276;23;20069;-89
2024/01/24 09:00:25;;;;;;;15.60;3.35;;;10.80;99.90;;;;;;6119148;23;20014;-89
2024/01/24 09:02:51;;;;;;;14.23;3.38;;;10.80;99.90;;;;;;6093398;23;20093;-89
2024/01/24 09:05:19;;;;;;;14.15;2.22;;;10.80;99.90;;;;;;6119189;23;20447;-89
2024/01/24 09:07:47;;;;;;;11.80;2.22;;;10.80;99.90;;;;;;6118266;23;20010;-89
2024/01/24 09:10:13;;;;;;;12.50;2.47;;;10.90;99.90;;;;;;6094300;23;20104;-89
2024/01/24 09:12:39;;;;;;;13.10;2.83;;;10.90;99.90;;;;;;6118377;23;20071;-89
2024/01/24 09:15:05;;;;;;;19.25;3.65;;;10.90;99.90;;;;;;6120489;23;20085;-88
2024/01/24 09:17:33;;;;;;;9.73;2.28;;;10.80;99.90;;;;;;6117856;23;20053;-89
2024/01/24 09:19:59;;;;;;;25.92;3.25;;;10.90;99.90;;;;;;6120421;23;20088;-89
2024/01/24 09:22:24;;;;;;;15.10;3.25;;;10.80;99.90;;;;;;6119335;23;20013;-88
2024/01/24 09:24:50;;;;;;;15.73;3.38;;;10.80;99.90;;;;;;6117982;23;20096;-88
2024/01/24 09:27:16;;;;;;;15.18;3.95;;;10.90;99.90;;;;;;6093812;23;20040;-89
2024/01/24 09:29:42;;;;;;;11.73;2.85;;;10.90;99.90;;;;;;6093886;23;20025;-88
2024/01/24 09:32:07;;;;;;;14.05;2.42;;;10.80;99.90;;;;;;6119043;23;20364;-88
2024/01/24 09:34:33;;;;;;;13.48;2.78;;;10.90;99.90;;;;;;6093938;23;20021;-88
2024/01/24 09:36:59;;;;;;;13.30;3.05;;;10.90;99.90;;;;;;6094068;23;20093;-89
2024/01/24 09:39:25;;;;;;;16.80;3.95;;;10.90;99.90;;;;;;6119100;23;20024;-89
2024/01/24 09:41:51;;;;;;;14.63;2.95;;;10.90;99.90;;;;;;6095617;23;20452;-88
2024/01/24 09:44:17;;;;;;;12.15;2.83;;;10.90;99.90;;;;;;6096073;23;20014;-89
2024/01/24 09:46:43;;;;;;;12.98;2.90;;;10.90;99.90;;;;;;6120348;23;20028;-88
2024/01/24 09:49:14;;;;;;;14.45;2.72;;;10.90;99.90;;;;;;6093602;23;20024;-89
2024/01/24 09:51:42;;;;;;;14.48;3.30;;;11.00;99.90;;;;;;6095265;23;20021;-89
2024/01/24 09:54:08;;;;;;;15.98;3.13;;;11.00;99.90;;;;;;6095146;23;20081;-90
2024/01/24 09:56:35;;;;;;;20.77;3.47;;;11.00;99.90;;;;;;6117921;23;20018;-89
2024/01/24 09:59:07;;;;;;;13.02;3.28;;;11.00;99.90;;;;;;6118840;23;20021;-90
2024/01/24 10:01:34;;;;;;;13.10;2.95;;;11.00;99.90;;;;;;6118810;23;20077;-90
2024/01/24 10:04:01;;;;;;;18.38;4.38;;;11.10;99.90;;;;;;6118617;23;20149;-90
2024/01/24 10:06:28;;;;;;;13.70;3.17;;;11.00;99.90;;;;;;6118879;23;20053;-90
2024/01/24 10:08:58;;;;;;;10.88;2.70;;;11.00;99.90;;;;;;6093982;23;20014;-89
2024/01/24 10:11:27;;;;;;;15.57;3.67;;;11.00;99.90;;;;;;6094596;23;20068;-89
2024/01/24 10:13:57;;;;;;;16.08;4.00;;;11.00;99.90;;;;;;6093714;23;20021;-89
2024/01/24 10:16:26;;;;;;;15.30;3.70;;;11.10;99.90;;;;;;6117753;23;20108;-90
2024/01/24 10:18:54;;;;;;;21.65;3.85;;;11.10;99.90;;;;;;6119630;23;20467;-90
2024/01/24 10:21:19;;;;;;;16.50;2.95;;;11.20;99.90;;;;;;6095134;23;20076;-91
2024/01/24 10:23:45;;;;;;;12.07;3.10;;;11.20;99.90;;;;;;6094456;23;20026;-90
2024/01/24 10:26:11;;;;;;;13.93;3.42;;;11.20;99.90;;;;;;6094003;23;20089;-91
2024/01/24 10:28:36;;;;;;;10.40;2.65;;;11.30;99.90;;;;;;6119330;23;20010;-90
2024/01/24 10:31:02;;;;;;;14.68;2.78;;;11.30;99.90;;;;;;6094023;23;20434;-90
2024/01/24 10:33:31;;;;;;;14.80;3.22;;;11.20;99.90;;;;;;6094298;23;20153;-90
2024/01/24 10:36:00;;;;;;;16.95;3.45;;;11.30;99.90;;;;;;6119068;23;20010;-90
2024/01/24 10:38:31;;;;;;;10.23;2.38;;;11.30;99.90;;;;;;6118669;23;20022;-90
2024/01/24 10:41:02;;;;;;;13.52;3.22;;;11.30;99.90;;;;;;6094402;23;20014;-91
2024/01/24 10:43:28;;;;;;;18.83;3.25;;;11.40;99.90;;;;;;6120973;23;20010;-90
2024/01/24 10:45:55;;;;;;;20.92;5.10;;;11.40;99.90;;;;;;6096912;23;20042;-90
2024/01/24 10:48:21;;;;;;;13.75;2.50;;;11.40;99.90;;;;;;6119679;23;20042;-91
2024/01/24 10:50:48;;;;;;;15.18;2.45;;;11.40;99.90;;;;;;6121051;23;20603;-91
2024/01/24 10:53:14;;;;;;;11.93;3.13;;;11.50;99.90;;;;;;6121867;23;20022;-91
2024/01/24 10:55:41;;;;;;;12.68;3.35;;;11.50;99.90;;;;;;6122255;23;20009;-90
2024/01/24 10:58:11;;;;;;;17.92;3.35;;;11.50;99.90;;;;;;6095886;23;20025;-90
2024/01/24 11:00:41;;;;;;;18.50;2.40;;;11.50;99.90;;;;;;6120279;23;20495;-90
2024/01/24 11:03:07;;;;;;;17.48;3.35;;;11.50;99.90;;;;;;6097088;23;20490;-91
2024/01/24 11:05:40;;;;;;;16.25;3.45;;;11.60;99.90;;;;;;6095474;23;20014;-91
2024/01/24 11:08:19;;;;;;;11.15;3.10;;;11.60;99.90;;;;;;6120284;23;20023;-90
2024/01/24 11:10:48;;;;;;;15.82;2.55;;;11.60;99.90;;;;;;6096898;23;20018;-91
2024/01/24 11:13:17;;;;;;;14.35;2.97;;;11.70;99.90;;;;;;6122093;23;20018;-91
2024/01/24 11:15:43;;;;;;;13.18;3.03;;;11.70;99.90;;;;;;6096389;23;20479;-91
2024/01/24 11:18:22;;;;;;;15.82;2.55;;;11.80;99.90;;;;;;6121466;23;20085;-91
2024/01/24 11:20:59;;;;;;;7.63;1.95;;;11.80;99.90;;;;;;6120145;23;20068;-91
2024/01/24 11:23:40;;;;;;;16.58;2.28;;;11.80;99.90;;;;;;6095362;23;20014;-90
2024/01/24 11:26:08;;;;;;;10.75;2.50;;;11.80;99.90;;;;;;6122289;23;20139;-91
2024/01/24 11:28:34;;;;;;;11.52;2.95;;;11.70;99.90;;;;;;6119061;23;20010;-90
2024/01/24 11:31:00;;;;;;;12.93;2.25;;;11.60;99.90;;;;;;6119860;23;20781;-90
2024/01/24 11:33:26;;;;;;;13.18;2.33;;;11.60;99.90;;;;;;6120016;23;20402;-92
2024/01/24 11:35:53;;;;;;;17.13;2.85;;;11.60;99.90;;;;;;6119776;23;20095;-91
2024/01/24 11:38:28;;;;;;;16.30;3.00;;;11.70;99.90;;;;;;6121448;23;20409;-90
2024/01/24 11:41:00;;;;;;;16.50;3.47;;;11.70;99.90;;;;;;6094850;23;20404;-90
2024/01/24 11:43:28;;;;;;;10.07;2.35;;;11.70;99.90;;;;;;6119125;23;20018;-91
2024/01/24 11:46:00;;;;;;;8.68;2.20;;;11.80;99.90;;;;;;6095826;23;20093;-91
2024/01/24 11:48:29;;;;;;;10.95;2.75;;;11.90;99.90;;;;;;6095272;23;20093;-91
2024/01/24 11:51:03;;;;;;;15.10;2.35;;;11.90;99.90;;;;;;6120242;23;20061;-90
2024/01/24 11:53:28;;;;;;;13.82;3.13;;;12.00;99.90;;;;;;6119557;23;20057;-92
2024/01/24 11:56:01;;;;;;;12.10;2.45;;;12.10;99.90;;;;;;6119302;23;20348;-91
2024/01/24 11:58:28;;;;;;;13.55;2.38;;;12.00;99.90;;;;;;6094779;23;20105;-91
2024/01/24 12:01:04;;;;;;;12.90;2.78;;;11.90;99.90;;;;;;6119309;23;20025;-90
2024/01/24 12:03:30;;;;;;;13.75;2.55;;;11.80;99.90;;;;;;6121214;23;20376;-90
2024/01/24 12:05:56;;;;;;;20.90;3.90;;;11.60;99.90;;;;;;6094145;23;20013;-91
2024/01/24 12:08:22;;;;;;;10.77;2.35;;;11.50;99.90;;;;;;6095324;23;20045;-91
2024/01/24 12:10:48;;;;;;;8.15;2.35;;;11.40;99.90;;;;;;6095919;23;20010;-91
2024/01/24 12:13:15;;;;;;;12.63;2.88;;;11.30;99.90;;;;;;6121164;23;20018;-90
2024/01/24 12:15:44;;;;;;;10.55;2.47;;;11.20;99.90;;;;;;6122868;23;20089;-91
2024/01/24 12:18:12;;;;;;;9.35;2.58;;;11.20;99.90;;;;;;6119252;23;20022;-90
2024/01/24 12:20:44;;;;;;;16.08;2.58;;;11.10;99.90;;;;;;6119091;23;20014;-90
2024/01/24 12:23:09;;;;;;;14.70;2.42;;;11.10;99.90;;;;;;6096038;23;20021;-91
2024/01/24 12:25:36;;;;;;;8.65;2.20;;;11.10;99.90;;;;;;6094887;23;20010;-91
2024/01/24 12:28:02;;;;;;;8.30;1.90;;;11.10;99.90;;;;;;6095085;23;20092;-90
2024/01/24 12:30:34;;;;;;;7.43;1.80;;;11.10;99.90;;;;;;6121503;23;20017;-90
2024/01/24 12:33:01;;;;;;;8.75;2.50;;;11.10;99.90;;;;;;6143682;23;20014;-90
2024/01/24 12:35:31;;;;;;;10.02;2.20;;;11.10;99.90;;;;;;6119091;23;20013;-91
2024/01/24 12:38:01;;;;;;;13.48;2.95;;;11.10;99.90;;;;;;6118887;23;20010;-90